PWSweather.com
Personal Weather Stations
Station Observations
265NC
Va2kh, Stcasimir, QC G0A 3L0

Va2khStcasimir, QC G0A 3L0

Lat: 46.65839, Lon: -72.13905

Elevation: 105

Station Type: National Geographic 265NC

http://www.qsl.net/va2kh

High Low Average
Temperature 52.2°F11.2°F 51.3°F10.7°F 51.3°F10.7°F
Dew Point 51.9°F11.1°F 51.0°F10.6°F 51.0°F10.6°F
Winds 2.0 mph W3.2 mph W 0.7 mph 1.1 mph 0.7 mph 1.1 mph
Wind Gusts 8.3 mph13.4 mph 3.8 mph6.1 mph 3.9 mph6.3 mph
Humidity 99% 99% 99%
Pressure 30.42 in1030.10 in 30.17 in1021.70 in -
Precipitation 0.00 in0.00 in - -
Hour Temp Dew Point Humidity Winds Wind Gusts Pressure Precip Precip Rate Daily Precip Total
12:00 AM 52.2°F11.2°C 51.9°F11.1°C 99% 2.0 mph W3.2 kmh W 8.3 mph13.4 kmh 30.17 in1021.7 mb 0.00 in0.0 mm 0.00 in/hr0.0 mm/hr 0.00 in0.0 mm
12:15 AM 51.6°F10.9°C 51.4°F10.8°C 99% 0.8 mph W1.3 kmh W 4.5 mph7.2 kmh 30.17 in1021.7 mb 0.00 in0.0 mm 0.00 in/hr0.0 mm/hr 0.00 in0.0 mm
12:30 AM 51.3°F10.7°C 51.0°F10.6°C 99% 0.8 mph W1.3 kmh W 3.8 mph6.1 kmh 30.18 in1022.0 mb 0.00 in0.0 mm 0.00 in/hr0.0 mm/hr 0.00 in0.0 mm
12:45 AM 51.3°F10.7°C 51.0°F10.6°C 99% 0.7 mph W1.1 kmh W 3.8 mph6.1 kmh 30.20 in1022.7 mb 0.00 in0.0 mm 0.00 in/hr0.0 mm/hr 0.00 in0.0 mm
01:00 AM 51.3°F10.7°C 51.0°F10.6°C 99% 0.7 mph W1.1 kmh W 3.8 mph6.1 kmh 30.20 in1022.7 mb 0.00 in0.0 mm 0.00 in/hr0.0 mm/hr 0.00 in0.0 mm
01:15 AM 51.3°F10.7°C 51.0°F10.6°C 99% 0.7 mph W1.1 kmh W 3.8 mph6.1 kmh 30.20 in1022.7 mb 0.00 in0.0 mm 0.00 in/hr0.0 mm/hr 0.00 in0.0 mm
01:30 AM 51.3°F10.7°C 51.0°F10.6°C 99% 0.7 mph W1.1 kmh W 3.8 mph6.1 kmh 30.21 in1023.0 mb 0.00 in0.0 mm 0.00 in/hr0.0 mm/hr 0.00 in0.0 mm
01:45 AM 51.3°F10.7°C 51.0°F10.6°C 99% 0.7 mph W1.1 kmh W 3.8 mph6.1 kmh 30.22 in1023.4 mb 0.00 in0.0 mm 0.00 in/hr0.0 mm/hr 0.00 in0.0 mm
02:00 AM 51.3°F10.7°C 51.0°F10.6°C 99% 0.7 mph W1.1 kmh W 3.8 mph6.1 kmh 30.23 in1023.7 mb 0.00 in0.0 mm 0.00 in/hr0.0 mm/hr 0.00 in0.0 mm
02:15 AM 51.3°F10.7°C 51.0°F10.6°C 99% 0.7 mph W1.1 kmh W 3.8 mph6.1 kmh 30.24 in1024.0 mb 0.00 in0.0 mm 0.00 in/hr0.0 mm/hr 0.00 in0.0 mm
02:30 AM 51.3°F10.7°C 51.0°F10.6°C 99% 0.7 mph W1.1 kmh W 3.8 mph6.1 kmh 30.25 in1024.4 mb 0.00 in0.0 mm 0.00 in/hr0.0 mm/hr 0.00 in0.0 mm
02:45 AM 51.3°F10.7°C 51.0°F10.6°C 99% 0.7 mph W1.1 kmh W 3.8 mph6.1 kmh 30.25 in1024.4 mb 0.00 in0.0 mm 0.00 in/hr0.0 mm/hr 0.00 in0.0 mm
03:00 AM 51.3°F10.7°C 51.0°F10.6°C 99% 0.7 mph W1.1 kmh W 3.8 mph6.1 kmh 30.26 in1024.7 mb 0.00 in0.0 mm 0.00 in/hr0.0 mm/hr 0.00 in0.0 mm
03:15 AM 51.3°F10.7°C 51.0°F10.6°C 99% 0.7 mph W1.1 kmh W 3.8 mph6.1 kmh 30.27 in1025.1 mb 0.00 in0.0 mm 0.00 in/hr0.0 mm/hr 0.00 in0.0 mm
03:30 AM 51.3°F10.7°C 51.0°F10.6°C 99% 0.7 mph W1.1 kmh W 3.8 mph6.1 kmh 30.29 in1025.7 mb 0.00 in0.0 mm 0.00 in/hr0.0 mm/hr 0.00 in0.0 mm
03:45 AM 51.3°F10.7°C 51.0°F10.6°C 99% 0.7 mph W1.1 kmh W 3.8 mph6.1 kmh 30.28 in1025.4 mb 0.00 in0.0 mm 0.00 in/hr0.0 mm/hr 0.00 in0.0 mm
04:00 AM 51.3°F10.7°C 51.0°F10.6°C 99% 0.7 mph W1.1 kmh W 3.8 mph6.1 kmh 30.29 in1025.7 mb 0.00 in0.0 mm 0.00 in/hr0.0 mm/hr 0.00 in0.0 mm
04:15 AM 51.3°F10.7°C 51.0°F10.6°C 99% 0.7 mph W1.1 kmh W 3.8 mph6.1 kmh 30.30 in1026.1 mb 0.00 in0.0 mm 0.00 in/hr0.0 mm/hr 0.00 in0.0 mm
04:30 AM 51.3°F10.7°C 51.0°F10.6°C 99% 0.7 mph W1.1 kmh W 3.8 mph6.1 kmh 30.31 in1026.4 mb 0.00 in0.0 mm 0.00 in/hr0.0 mm/hr 0.00 in0.0 mm
04:45 AM 51.3°F10.7°C 51.0°F10.6°C 99% 0.7 mph W1.1 kmh W 3.8 mph6.1 kmh 30.32 in1026.8 mb 0.00 in0.0 mm 0.00 in/hr0.0 mm/hr 0.00 in0.0 mm
05:00 AM 51.3°F10.7°C 51.0°F10.6°C 99% 0.7 mph W1.1 kmh W 3.8 mph6.1 kmh 30.33 in1027.1 mb 0.00 in0.0 mm 0.00 in/hr0.0 mm/hr 0.00 in0.0 mm
05:15 AM 51.3°F10.7°C 51.0°F10.6°C 99% 0.7 mph W1.1 kmh W 3.8 mph6.1 kmh 30.33 in1027.1 mb 0.00 in0.0 mm 0.00 in/hr0.0 mm/hr 0.00 in0.0 mm
05:30 AM 51.3°F10.7°C 51.0°F10.6°C 99% 0.7 mph W1.1 kmh W 3.8 mph6.1 kmh 30.33 in1027.1 mb 0.00 in0.0 mm 0.00 in/hr0.0 mm/hr 0.00 in0.0 mm
05:45 AM 51.3°F10.7°C 51.0°F10.6°C 99% 0.7 mph W1.1 kmh W 3.8 mph6.1 kmh 30.34 in1027.4 mb 0.00 in0.0 mm 0.00 in/hr0.0 mm/hr 0.00 in0.0 mm
06:00 AM 51.3°F10.7°C 51.0°F10.6°C 99% 0.7 mph W1.1 kmh W 3.8 mph6.1 kmh 30.35 in1027.8 mb 0.00 in0.0 mm 0.00 in/hr0.0 mm/hr 0.00 in0.0 mm
06:15 AM 51.3°F10.7°C 51.0°F10.6°C 99% 0.7 mph W1.1 kmh W 3.8 mph6.1 kmh 30.36 in1028.1 mb 0.00 in0.0 mm 0.00 in/hr0.0 mm/hr 0.00 in0.0 mm
06:30 AM 51.3°F10.7°C 51.0°F10.6°C 99% 0.7 mph W1.1 kmh W 3.8 mph6.1 kmh 30.37 in1028.4 mb 0.00 in0.0 mm 0.00 in/hr0.0 mm/hr 0.00 in0.0 mm
06:45 AM 51.3°F10.7°C 51.0°F10.6°C 99% 0.7 mph W1.1 kmh W 3.8 mph6.1 kmh 30.38 in1028.8 mb 0.00 in0.0 mm 0.00 in/hr0.0 mm/hr 0.00 in0.0 mm
07:00 AM 51.3°F10.7°C 51.0°F10.6°C 99% 0.7 mph W1.1 kmh W 3.8 mph6.1 kmh 30.39 in1029.1 mb 0.00 in0.0 mm 0.00 in/hr0.0 mm/hr 0.00 in0.0 mm
07:15 AM 51.3°F10.7°C 51.0°F10.6°C 99% 0.7 mph W1.1 kmh W 3.8 mph6.1 kmh 30.40 in1029.5 mb 0.00 in0.0 mm 0.00 in/hr0.0 mm/hr 0.00 in0.0 mm
07:30 AM 51.3°F10.7°C 51.0°F10.6°C 99% 0.7 mph W1.1 kmh W 3.8 mph6.1 kmh 30.41 in1029.8 mb 0.00 in0.0 mm 0.00 in/hr0.0 mm/hr 0.00 in0.0 mm
07:45 AM 51.3°F10.7°C 51.0°F10.6°C 99% 0.7 mph W1.1 kmh W 3.8 mph6.1 kmh 30.41 in1029.8 mb 0.00 in0.0 mm 0.00 in/hr0.0 mm/hr 0.00 in0.0 mm
08:00 AM 51.3°F10.7°C 51.0°F10.6°C 99% 0.7 mph W1.1 kmh W 3.8 mph6.1 kmh 30.42 in1030.1 mb 0.00 in0.0 mm 0.00 in/hr0.0 mm/hr 0.00 in0.0 mm
08:15 AM 51.3°F10.7°C 51.0°F10.6°C 99% 0.7 mph W1.1 kmh W 3.8 mph6.1 kmh 30.42 in1030.1 mb 0.00 in0.0 mm 0.00 in/hr0.0 mm/hr 0.00 in0.0 mm
08:30 AM 51.3°F10.7°C 51.0°F10.6°C 99% 0.7 mph W1.1 kmh W 3.8 mph6.1 kmh 30.42 in1030.1 mb 0.00 in0.0 mm 0.00 in/hr0.0 mm/hr 0.00 in0.0 mm
08:45 AM 51.3°F10.7°C 51.0°F10.6°C 99% 0.7 mph W1.1 kmh W 3.8 mph6.1 kmh 30.42 in1030.1 mb 0.00 in0.0 mm 0.00 in/hr0.0 mm/hr 0.00 in0.0 mm
09:00 AM 51.3°F10.7°C 51.0°F10.6°C 99% 0.7 mph W1.1 kmh W 3.8 mph6.1 kmh 30.42 in1030.1 mb 0.00 in0.0 mm 0.00 in/hr0.0 mm/hr 0.00 in0.0 mm
09:15 AM 51.3°F10.7°C 51.0°F10.6°C 99% 0.7 mph W1.1 kmh W 3.8 mph6.1 kmh 30.42 in1030.1 mb 0.00 in0.0 mm 0.00 in/hr0.0 mm/hr 0.00 in0.0 mm
09:30 AM 51.3°F10.7°C 51.0°F10.6°C 99% 0.7 mph W1.1 kmh W 3.8 mph6.1 kmh 30.42 in1030.1 mb 0.00 in0.0 mm 0.00 in/hr0.0 mm/hr 0.00 in0.0 mm
09:45 AM 51.3°F10.7°C 51.0°F10.6°C 99% 0.7 mph W1.1 kmh W 3.8 mph6.1 kmh 30.42 in1030.1 mb 0.00 in0.0 mm 0.00 in/hr0.0 mm/hr 0.00 in0.0 mm
10:00 AM 51.3°F10.7°C 51.0°F10.6°C 99% 0.7 mph W1.1 kmh W 3.8 mph6.1 kmh 30.41 in1029.8 mb 0.00 in0.0 mm 0.00 in/hr0.0 mm/hr 0.00 in0.0 mm
10:15 AM 51.3°F10.7°C 51.0°F10.6°C 99% 0.7 mph W1.1 kmh W 3.8 mph6.1 kmh 30.42 in1030.1 mb 0.00 in0.0 mm 0.00 in/hr0.0 mm/hr 0.00 in0.0 mm
10:30 AM 51.3°F10.7°C 51.0°F10.6°C 99% 0.7 mph W1.1 kmh W 3.8 mph6.1 kmh 30.42 in1030.1 mb 0.00 in0.0 mm 0.00 in/hr0.0 mm/hr 0.00 in0.0 mm
10:45 AM 51.3°F10.7°C 51.0°F10.6°C 99% 0.7 mph W1.1 kmh W 3.8 mph6.1 kmh 30.42 in1030.1 mb 0.00 in0.0 mm 0.00 in/hr0.0 mm/hr 0.00 in0.0 mm
11:00 AM 51.3°F10.7°C 51.0°F10.6°C 99% 0.7 mph W1.1 kmh W 3.8 mph6.1 kmh 30.41 in1029.8 mb 0.00 in0.0 mm 0.00 in/hr0.0 mm/hr 0.00 in0.0 mm
11:15 AM 51.3°F10.7°C 51.0°F10.6°C 99% 0.7 mph W1.1 kmh W 3.8 mph6.1 kmh 30.42 in1030.1 mb 0.00 in0.0 mm 0.00 in/hr0.0 mm/hr 0.00 in0.0 mm
11:30 AM 51.3°F10.7°C 51.0°F10.6°C 99% 0.7 mph W1.1 kmh W 3.8 mph6.1 kmh 30.41 in1029.8 mb 0.00 in0.0 mm 0.00 in/hr0.0 mm/hr 0.00 in0.0 mm
11:45 AM 51.3°F10.7°C 51.0°F10.6°C 99% 0.7 mph W1.1 kmh W 3.8 mph6.1 kmh 30.41 in1029.8 mb 0.00 in0.0 mm 0.00 in/hr0.0 mm/hr 0.00 in0.0 mm
12:00 PM 51.3°F10.7°C 51.0°F10.6°C 99% 0.7 mph W1.1 kmh W 3.8 mph6.1 kmh 30.41 in1029.8 mb 0.00 in0.0 mm 0.00 in/hr0.0 mm/hr 0.00 in0.0 mm
12:15 PM 51.3°F10.7°C 51.0°F10.6°C 99% 0.7 mph W1.1 kmh W 3.8 mph6.1 kmh 30.41 in1029.8 mb 0.00 in0.0 mm 0.00 in/hr0.0 mm/hr 0.00 in0.0 mm
12:30 PM 51.3°F10.7°C 51.0°F10.6°C 99% 0.7 mph W1.1 kmh W 3.8 mph6.1 kmh 30.41 in1029.8 mb 0.00 in0.0 mm 0.00 in/hr0.0 mm/hr 0.00 in0.0 mm
12:45 PM 51.3°F10.7°C 51.0°F10.6°C 99% 0.7 mph W1.1 kmh W 3.8 mph6.1 kmh 30.40 in1029.5 mb 0.00 in0.0 mm 0.00 in/hr0.0 mm/hr 0.00 in0.0 mm
01:00 PM 51.3°F10.7°C 51.0°F10.6°C 99% 0.7 mph W1.1 kmh W 3.8 mph6.1 kmh 30.41 in1029.8 mb 0.00 in0.0 mm 0.00 in/hr0.0 mm/hr 0.00 in0.0 mm
01:15 PM 51.3°F10.7°C 51.0°F10.6°C 99% 0.7 mph W1.1 kmh W 3.8 mph6.1 kmh 30.40 in1029.5 mb 0.00 in0.0 mm 0.00 in/hr0.0 mm/hr 0.00 in0.0 mm
01:30 PM 51.3°F10.7°C 51.0°F10.6°C 99% 0.7 mph W1.1 kmh W 3.8 mph6.1 kmh 30.41 in1029.8 mb 0.00 in0.0 mm 0.00 in/hr0.0 mm/hr 0.00 in0.0 mm
01:45 PM 51.3°F10.7°C 51.0°F10.6°C 99% 0.7 mph W1.1 kmh W 3.8 mph6.1 kmh 30.41 in1029.8 mb 0.00 in0.0 mm 0.00 in/hr0.0 mm/hr 0.00 in0.0 mm
02:00 PM 51.3°F10.7°C 51.0°F10.6°C 99% 0.7 mph W1.1 kmh W 3.8 mph6.1 kmh 30.40 in1029.5 mb 0.00 in0.0 mm 0.00 in/hr0.0 mm/hr 0.00 in0.0 mm
02:15 PM 51.3°F10.7°C 51.0°F10.6°C 99% 0.7 mph W1.1 kmh W 3.8 mph6.1 kmh 30.40 in1029.5 mb 0.00 in0.0 mm 0.00 in/hr0.0 mm/hr 0.00 in0.0 mm
02:30 PM 51.3°F10.7°C 51.0°F10.6°C 99% 0.7 mph W1.1 kmh W 3.8 mph6.1 kmh 30.39 in1029.1 mb 0.00 in0.0 mm 0.00 in/hr0.0 mm/hr 0.00 in0.0 mm
02:45 PM 51.3°F10.7°C 51.0°F10.6°C 99% 0.7 mph W1.1 kmh W 3.8 mph6.1 kmh 30.39 in1029.1 mb 0.00 in0.0 mm 0.00 in/hr0.0 mm/hr 0.00 in0.0 mm
03:00 PM 51.3°F10.7°C 51.0°F10.6°C 99% 0.7 mph W1.1 kmh W 3.8 mph6.1 kmh 30.40 in1029.5 mb 0.00 in0.0 mm 0.00 in/hr0.0 mm/hr 0.00 in0.0 mm
03:15 PM 51.3°F10.7°C 51.0°F10.6°C 99% 0.7 mph W1.1 kmh W 3.8 mph6.1 kmh 30.40 in1029.5 mb 0.00 in0.0 mm 0.00 in/hr0.0 mm/hr 0.00 in0.0 mm
03:30 PM 51.3°F10.7°C 51.0°F10.6°C 99% 0.7 mph W1.1 kmh W 3.8 mph6.1 kmh 30.40 in1029.5 mb 0.00 in0.0 mm 0.00 in/hr0.0 mm/hr 0.00 in0.0 mm
03:45 PM 51.3°F10.7°C 51.0°F10.6°C 99% 0.7 mph W1.1 kmh W 3.8 mph6.1 kmh 30.40 in1029.5 mb 0.00 in0.0 mm 0.00 in/hr0.0 mm/hr 0.00 in0.0 mm
04:00 PM 51.3°F10.7°C 51.0°F10.6°C 99% 0.7 mph W1.1 kmh W 3.8 mph6.1 kmh 30.41 in1029.8 mb 0.00 in0.0 mm 0.00 in/hr0.0 mm/hr 0.00 in0.0 mm
04:15 PM 51.3°F10.7°C 51.0°F10.6°C 99% 0.7 mph W1.1 kmh W 3.8 mph6.1 kmh 30.41 in1029.8 mb 0.00 in0.0 mm 0.00 in/hr0.0 mm/hr 0.00 in0.0 mm
04:30 PM 51.3°F10.7°C 51.0°F10.6°C 99% 0.7 mph W1.1 kmh W 3.8 mph6.1 kmh 30.40 in1029.5 mb 0.00 in0.0 mm 0.00 in/hr0.0 mm/hr 0.00 in0.0 mm
04:45 PM 51.3°F10.7°C 51.0°F10.6°C 99% 0.7 mph W1.1 kmh W 3.8 mph6.1 kmh 30.40 in1029.5 mb 0.00 in0.0 mm 0.00 in/hr0.0 mm/hr 0.00 in0.0 mm
05:00 PM 51.3°F10.7°C 51.0°F10.6°C 99% 0.7 mph W1.1 kmh W 3.8 mph6.1 kmh 30.41 in1029.8 mb 0.00 in0.0 mm 0.00 in/hr0.0 mm/hr 0.00 in0.0 mm
05:15 PM 51.3°F10.7°C 51.0°F10.6°C 99% 0.7 mph W1.1 kmh W 3.8 mph6.1 kmh 30.40 in1029.5 mb 0.00 in0.0 mm 0.00 in/hr0.0 mm/hr 0.00 in0.0 mm
05:30 PM 51.3°F10.7°C 51.0°F10.6°C 99% 0.7 mph W1.1 kmh W 3.8 mph6.1 kmh 30.41 in1029.8 mb 0.00 in0.0 mm 0.00 in/hr0.0 mm/hr 0.00 in0.0 mm
05:45 PM 51.3°F10.7°C 51.0°F10.6°C 99% 0.7 mph W1.1 kmh W 3.8 mph6.1 kmh 30.41 in1029.8 mb 0.00 in0.0 mm 0.00 in/hr0.0 mm/hr 0.00 in0.0 mm
06:00 PM 51.3°F10.7°C 51.0°F10.6°C 99% 0.7 mph W1.1 kmh W 3.8 mph6.1 kmh 30.41 in1029.8 mb 0.00 in0.0 mm 0.00 in/hr0.0 mm/hr 0.00 in0.0 mm
06:15 PM 51.3°F10.7°C 51.0°F10.6°C 99% 0.7 mph W1.1 kmh W 3.8 mph6.1 kmh 30.41 in1029.8 mb 0.00 in0.0 mm 0.00 in/hr0.0 mm/hr 0.00 in0.0 mm
06:30 PM 51.3°F10.7°C 51.0°F10.6°C 99% 0.7 mph W1.1 kmh W 3.8 mph6.1 kmh 30.41 in1029.8 mb 0.00 in0.0 mm 0.00 in/hr0.0 mm/hr 0.00 in0.0 mm
06:45 PM 51.3°F10.7°C 51.0°F10.6°C 99% 0.7 mph W1.1 kmh W 3.8 mph6.1 kmh 30.41 in1029.8 mb 0.00 in0.0 mm 0.00 in/hr0.0 mm/hr 0.00 in0.0 mm
07:00 PM 51.3°F10.7°C 51.0°F10.6°C 99% 0.7 mph W1.1 kmh W 3.8 mph6.1 kmh 30.41 in1029.8 mb 0.00 in0.0 mm 0.00 in/hr0.0 mm/hr 0.00 in0.0 mm
07:15 PM 51.3°F10.7°C 51.0°F10.6°C 99% 0.7 mph W1.1 kmh W 3.8 mph6.1 kmh 30.40 in1029.5 mb 0.00 in0.0 mm 0.00 in/hr0.0 mm/hr 0.00 in0.0 mm
07:30 PM 51.3°F10.7°C 51.0°F10.6°C 99% 0.7 mph W1.1 kmh W 3.8 mph6.1 kmh 30.40 in1029.5 mb 0.00 in0.0 mm 0.00 in/hr0.0 mm/hr 0.00 in0.0 mm
07:45 PM 51.3°F10.7°C 51.0°F10.6°C 99% 0.7 mph W1.1 kmh W 3.8 mph6.1 kmh 30.41 in1029.8 mb 0.00 in0.0 mm 0.00 in/hr0.0 mm/hr 0.00 in0.0 mm
08:00 PM 51.3°F10.7°C 51.0°F10.6°C 99% 0.7 mph W1.1 kmh W 3.8 mph6.1 kmh 30.41 in1029.8 mb 0.00 in0.0 mm 0.00 in/hr0.0 mm/hr 0.00 in0.0 mm
08:15 PM 51.3°F10.7°C 51.0°F10.6°C 99% 0.7 mph W1.1 kmh W 3.8 mph6.1 kmh 30.41 in1029.8 mb 0.00 in0.0 mm 0.00 in/hr0.0 mm/hr 0.00 in0.0 mm
08:30 PM 51.3°F10.7°C 51.0°F10.6°C 99% 0.7 mph W1.1 kmh W 3.8 mph6.1 kmh 30.41 in1029.8 mb 0.00 in0.0 mm 0.00 in/hr0.0 mm/hr 0.00 in0.0 mm
08:45 PM 51.3°F10.7°C 51.0°F10.6°C 99% 0.7 mph W1.1 kmh W 3.8 mph6.1 kmh 30.41 in1029.8 mb 0.00 in0.0 mm 0.00 in/hr0.0 mm/hr 0.00 in0.0 mm
09:00 PM 51.3°F10.7°C 51.0°F10.6°C 99% 0.7 mph W1.1 kmh W 3.8 mph6.1 kmh 30.40 in1029.5 mb 0.00 in0.0 mm 0.00 in/hr0.0 mm/hr 0.00 in0.0 mm
09:15 PM 51.3°F10.7°C 51.0°F10.6°C 99% 0.7 mph W1.1 kmh W 3.8 mph6.1 kmh 30.40 in1029.5 mb 0.00 in0.0 mm 0.00 in/hr0.0 mm/hr 0.00 in0.0 mm
09:30 PM 51.3°F10.7°C 51.0°F10.6°C 99% 0.7 mph W1.1 kmh W 3.8 mph6.1 kmh 30.40 in1029.5 mb 0.00 in0.0 mm 0.00 in/hr0.0 mm/hr 0.00 in0.0 mm
09:45 PM 51.3°F10.7°C 51.0°F10.6°C 99% 0.7 mph W1.1 kmh W 3.8 mph6.1 kmh 30.40 in1029.5 mb 0.00 in0.0 mm 0.00 in/hr0.0 mm/hr 0.00 in0.0 mm
10:00 PM 51.3°F10.7°C 51.0°F10.6°C 99% 0.7 mph W1.1 kmh W 3.8 mph6.1 kmh 30.39 in1029.1 mb 0.00 in0.0 mm 0.00 in/hr0.0 mm/hr 0.00 in0.0 mm
10:15 PM 51.3°F10.7°C 51.0°F10.6°C 99% 0.7 mph W1.1 kmh W 3.8 mph6.1 kmh 30.39 in1029.1 mb 0.00 in0.0 mm 0.00 in/hr0.0 mm/hr 0.00 in0.0 mm
10:30 PM 51.3°F10.7°C 51.0°F10.6°C 99% 0.7 mph W1.1 kmh W 3.8 mph6.1 kmh 30.39 in1029.1 mb 0.00 in0.0 mm 0.00 in/hr0.0 mm/hr 0.00 in0.0 mm
10:45 PM 51.3°F10.7°C 51.0°F10.6°C 99% 0.7 mph W1.1 kmh W 3.8 mph6.1 kmh 30.39 in1029.1 mb 0.00 in0.0 mm 0.00 in/hr0.0 mm/hr 0.00 in0.0 mm
11:00 PM 51.3°F10.7°C 51.0°F10.6°C 99% 0.7 mph W1.1 kmh W 3.8 mph6.1 kmh 30.38 in1028.8 mb 0.00 in0.0 mm 0.00 in/hr0.0 mm/hr 0.00 in0.0 mm
11:15 PM 51.3°F10.7°C 51.0°F10.6°C 99% 0.7 mph W1.1 kmh W 3.8 mph6.1 kmh 30.38 in1028.8 mb 0.00 in0.0 mm 0.00 in/hr0.0 mm/hr 0.00 in0.0 mm
11:30 PM 51.3°F10.7°C 51.0°F10.6°C 99% 0.7 mph W1.1 kmh W 3.8 mph6.1 kmh 30.38 in1028.8 mb 0.00 in0.0 mm 0.00 in/hr0.0 mm/hr 0.00 in0.0 mm
11:45 PM 51.3°F10.7°C 51.0°F10.6°C 99% 0.7 mph W1.1 kmh W 3.8 mph6.1 kmh 30.38 in1028.8 mb 0.00 in0.0 mm 0.00 in/hr0.0 mm/hr 0.00 in0.0 mm